Time,TemperatureF,DewpointF,PressureIn,WindDirection,WindDirectionDegrees,WindSpeedMPH,WindSpeedGustMPH,Humidity,HourlyPrecipIn,Conditions,Clouds,dailyrainin,SoftwareType,DateUTC
2013-02-06 00:00:00,60.2,49.6,29.97,NNW,348,0.0,0.0,68,0.00,,,0.00,VWS V14.01,2013-02-06 06:00:00,
2013-02-06 00:05:00,60.0,49.4,29.97,NNW,347,0.0,0.0,68,0.00,,,0.00,VWS V14.01,2013-02-06 06:05:00,
2013-02-06 00:10:00,60.0,49.4,29.97,NNW,348,0.0,0.0,68,0.00,,,0.00,VWS V14.01,2013-02-06 06:10:00,
2013-02-06 00:15:00,60.0,49.4,29.96,North,349,0.0,0.0,68,0.00,,,0.00,VWS V14.01,2013-02-06 06:15:00,
2013-02-06 00:20:00,60.3,49.3,29.96,North,349,2.0,2.0,67,0.00,,,0.00,VWS V14.01,2013-02-06 06:20:00,
2013-02-06 00:25:00,60.7,49.3,29.95,North,4,3.0,3.0,66,0.00,,,0.00,VWS V14.01,2013-02-06 06:25:00,
2013-02-06 00:30:00,60.8,49.4,29.94,NNE,20,3.0,4.0,66,0.00,,,0.00,VWS V14.01,2013-02-06 06:30:00,
2013-02-06 00:35:00,60.8,49.4,29.94,NNE,25,2.0,4.0,66,0.00,,,0.00,VWS V14.01,2013-02-06 06:35:00,
2013-02-06 00:40:00,60.7,49.7,29.93,NNE,25,1.0,2.0,67,0.00,,,0.00,VWS V14.01,2013-02-06 06:40:00,
2013-02-06 00:45:00,60.7,49.7,29.93,NE,46,2.0,3.0,67,0.00,,,0.00,VWS V14.01,2013-02-06 06:45:00,
2013-02-06 00:49:00,60.7,49.7,29.93,NE,46,1.0,2.0,67,0.00,,,0.00,VWS V14.01,2013-02-06 06:49:00,
2013-02-06 00:50:00,60.1,51.1,29.94,ENE,68,0.0,0.0,72,0.00,,,0.00,VWS V14.01,2013-02-06 06:50:00,
2013-02-06 00:54:00,60.5,49.9,29.93,NE,49,1.0,2.0,68,0.00,,,0.00,VWS V14.01,2013-02-06 06:54:00,
2013-02-06 00:55:00,59.6,50.6,29.95,ENE,68,0.0,0.0,72,0.00,,,0.00,VWS V14.01,2013-02-06 06:55:00,
2013-02-06 00:59:00,60.5,49.9,29.93,NE,49,0.0,2.0,68,0.00,,,0.00,VWS V14.01,2013-02-06 06:59:00,
2013-02-06 01:00:00,58.8,50.2,29.94,ENE,68,0.0,0.0,73,0.00,,,0.00,VWS V14.01,2013-02-06 07:00:00,
2013-02-06 01:04:00,60.7,50.5,29.93,NE,50,1.0,2.0,69,0.00,,,0.00,VWS V14.01,2013-02-06 07:04:00,
2013-02-06 01:05:00,58.3,50.4,29.94,ENE,68,0.0,0.0,75,0.00,,,0.00,VWS V14.01,2013-02-06 07:05:00,
2013-02-06 01:09:00,60.9,51.1,29.93,ENE,70,1.0,2.0,70,0.00,,,0.00,VWS V14.01,2013-02-06 07:09:00,
2013-02-06 01:10:00,58.0,50.8,29.94,ENE,68,0.0,0.0,77,0.00,,,0.00,VWS V14.01,2013-02-06 07:10:00,
2013-02-06 01:14:00,61.3,51.5,29.94,ENE,70,0.0,2.0,70,0.00,,,0.00,VWS V14.01,2013-02-06 07:14:00,
2013-02-06 01:15:00,57.8,50.7,29.94,ENE,68,0.0,0.0,77,0.00,,,0.00,VWS V14.01,2013-02-06 07:15:00,
2013-02-06 01:19:00,61.3,51.5,29.94,ENE,71,1.0,1.0,70,0.00,,,0.00,VWS V14.01,2013-02-06 07:19:00,
2013-02-06 01:20:00,58.0,50.8,29.94,ENE,68,0.0,0.0,77,0.00,,,0.00,VWS V14.01,2013-02-06 07:20:00,
2013-02-06 01:24:00,61.1,51.2,29.94,ENE,70,0.0,1.0,70,0.00,,,0.00,VWS V14.01,2013-02-06 07:24:00,
2013-02-06 01:25:00,57.9,51.1,29.94,ENE,68,0.0,0.0,78,0.00,,,0.00,VWS V14.01,2013-02-06 07:25:00,
2013-02-06 01:29:00,61.1,51.2,29.95,ENE,70,0.0,0.0,70,0.00,,,0.00,VWS V14.01,2013-02-06 07:29:00,
2013-02-06 01:30:00,57.8,51.0,29.94,ENE,68,0.0,0.0,78,0.00,,,0.00,VWS V14.01,2013-02-06 07:30:00,
2013-02-06 01:34:00,61.0,51.5,29.94,ENE,70,0.0,0.0,71,0.00,,,0.00,VWS V14.01,2013-02-06 07:34:00,
2013-02-06 01:35:00,57.5,50.7,29.94,ENE,68,0.0,0.0,78,0.00,,,0.00,VWS V14.01,2013-02-06 07:35:00,
2013-02-06 01:39:00,60.9,51.5,29.95,ENE,70,0.0,0.0,71,0.00,,,0.00,VWS V14.01,2013-02-06 07:39:00,
2013-02-06 01:40:00,57.4,51.0,29.94,ENE,68,0.0,0.0,79,0.00,,,0.00,VWS V14.01,2013-02-06 07:40:00,
2013-02-06 01:44:00,60.5,51.1,29.94,ENE,68,0.0,0.0,71,0.00,,,0.00,VWS V14.01,2013-02-06 07:44:00,
2013-02-06 01:45:00,57.4,51.0,29.95,ENE,68,0.0,0.0,79,0.00,,,0.00,VWS V14.01,2013-02-06 07:45:00,
2013-02-06 01:49:00,60.2,51.2,29.94,ENE,68,0.0,0.0,72,0.00,,,0.00,VWS V14.01,2013-02-06 07:49:00,
2013-02-06 01:50:00,57.3,50.8,29.95,ENE,68,0.0,0.0,79,0.00,,,0.00,VWS V14.01,2013-02-06 07:50:00,
2013-02-06 01:54:00,59.7,50.7,29.95,ENE,68,0.0,0.0,72,0.00,,,0.00,VWS V14.01,2013-02-06 07:54:00,
2013-02-06 01:55:00,56.9,50.5,29.94,ENE,68,0.0,0.0,79,0.00,,,0.00,VWS V14.01,2013-02-06 07:55:00,
2013-02-06 01:59:00,58.9,50.3,29.94,ENE,68,0.0,0.0,73,0.00,,,0.00,VWS V14.01,2013-02-06 07:59:00,
2013-02-06 02:00:00,56.3,49.9,29.94,ENE,59,0.0,1.0,79,0.00,,,0.00,VWS V14.01,2013-02-06 08:00:00,
2013-02-06 02:04:00,58.3,50.1,29.94,ENE,68,0.0,0.0,74,0.00,,,0.00,VWS V14.01,2013-02-06 08:04:00,
2013-02-06 02:05:00,56.3,50.5,29.94,NNE,28,0.0,1.0,81,0.00,,,0.00,VWS V14.01,2013-02-06 08:05:00,
2013-02-06 02:09:00,58.0,50.5,29.94,ENE,68,0.0,0.0,76,0.00,,,0.00,VWS V14.01,2013-02-06 08:09:00,
2013-02-06 02:10:00,56.7,50.9,29.94,NNE,28,0.0,0.0,81,0.00,,,0.00,VWS V14.01,2013-02-06 08:10:00,
2013-02-06 02:14:00,57.8,50.7,29.94,ENE,68,0.0,0.0,77,0.00,,,0.00,VWS V14.01,2013-02-06 08:14:00,
2013-02-06 02:15:00,56.8,51.0,29.93,NNE,28,0.0,0.0,81,0.00,,,0.00,VWS V14.01,2013-02-06 08:15:00,
2013-02-06 02:19:00,58.0,51.2,29.94,ENE,68,0.0,0.0,78,0.00,,,0.00,VWS V14.01,2013-02-06 08:19:00,
2013-02-06 02:20:00,57.0,51.6,29.93,NNE,28,0.0,1.0,82,0.00,,,0.00,VWS V14.01,2013-02-06 08:20:00,
2013-02-06 02:24:00,57.9,51.1,29.94,ENE,68,0.0,0.0,78,0.00,,,0.00,VWS V14.01,2013-02-06 08:24:00,
2013-02-06 02:25:00,57.2,52.1,29.93,NNE,28,0.0,1.0,83,0.00,,,0.00,VWS V14.01,2013-02-06 08:25:00,
2013-02-06 02:29:00,57.8,51.0,29.94,ENE,68,0.0,0.0,78,0.00,,,0.00,VWS V14.01,2013-02-06 08:29:00,
2013-02-06 02:30:00,57.8,52.7,29.94,NNE,28,0.0,1.0,83,0.00,,,0.00,VWS V14.01,2013-02-06 08:30:00,
2013-02-06 02:34:00,57.6,50.8,29.94,ENE,68,0.0,0.0,78,0.00,,,0.00,VWS V14.01,2013-02-06 08:34:00,
2013-02-06 02:35:00,58.1,52.6,29.94,NNE,28,0.0,0.0,82,0.00,,,0.00,VWS V14.01,2013-02-06 08:35:00,
2013-02-06 02:39:00,57.4,51.0,29.94,ENE,68,0.0,0.0,79,0.00,,,0.00,VWS V14.01,2013-02-06 08:39:00,
2013-02-06 02:40:00,58.2,52.7,29.94,NNE,28,0.0,0.0,82,0.00,,,0.00,VWS V14.01,2013-02-06 08:40:00,
2013-02-06 02:44:00,57.4,51.3,29.95,ENE,68,0.0,0.0,80,0.00,,,0.00,VWS V14.01,2013-02-06 08:44:00,
2013-02-06 02:45:00,58.4,53.3,29.94,NNE,28,0.0,0.0,83,0.00,,,0.00,VWS V14.01,2013-02-06 08:45:00,
2013-02-06 02:49:00,57.4,51.0,29.95,ENE,68,0.0,0.0,79,0.00,,,0.00,VWS V14.01,2013-02-06 08:49:00,
2013-02-06 02:50:00,58.6,53.5,29.94,NNE,28,0.0,0.0,83,0.00,,,0.00,VWS V14.01,2013-02-06 08:50:00,
2013-02-06 02:54:00,57.0,50.6,29.94,ENE,68,0.0,0.0,79,0.00,,,0.00,VWS V14.01,2013-02-06 08:54:00,
2013-02-06 02:55:00,58.7,53.6,29.94,NNE,28,0.0,0.0,83,0.00,,,0.00,VWS V14.01,2013-02-06 08:55:00,
2013-02-06 02:59:00,56.4,50.0,29.94,ENE,64,0.0,1.0,79,0.00,,,0.00,VWS V14.01,2013-02-06 08:59:00,
2013-02-06 03:00:00,59.1,54.0,29.94,NNE,28,0.0,0.0,83,0.00,,,0.00,VWS V14.01,2013-02-06 09:00:00,
2013-02-06 03:04:00,56.3,50.5,29.94,NE,50,0.0,1.0,81,0.00,,,0.00,VWS V14.01,2013-02-06 09:04:00,
2013-02-06 03:05:00,59.0,53.5,29.94,NNE,28,0.0,0.0,82,0.00,,,0.00,VWS V14.01,2013-02-06 09:05:00,
2013-02-06 03:09:00,56.7,50.9,29.94,NNE,28,0.0,0.0,81,0.00,,,0.00,VWS V14.01,2013-02-06 09:09:00,
2013-02-06 03:10:00,59.0,53.8,29.94,NNE,28,0.0,0.0,83,0.00,,,0.00,VWS V14.01,2013-02-06 09:10:00,
2013-02-06 03:14:00,56.8,51.0,29.93,NNE,28,0.0,0.0,81,0.00,,,0.00,VWS V14.01,2013-02-06 09:14:00,
2013-02-06 03:15:00,58.9,53.8,29.94,NNE,28,0.0,0.0,83,0.00,,,0.00,VWS V14.01,2013-02-06 09:15:00,
2013-02-06 03:19:00,57.0,51.6,29.93,NNE,28,0.0,1.0,82,0.00,,,0.00,VWS V14.01,2013-02-06 09:19:00,
2013-02-06 03:20:00,59.2,54.4,29.94,NNE,28,0.0,0.0,84,0.00,,,0.00,VWS V14.01,2013-02-06 09:20:00,
2013-02-06 03:24:00,57.1,52.0,29.94,NNE,28,0.0,1.0,83,0.00,,,0.00,VWS V14.01,2013-02-06 09:24:00,
2013-02-06 03:25:00,59.4,54.2,29.94,NNE,28,0.0,0.0,83,0.00,,,0.00,VWS V14.01,2013-02-06 09:25:00,
2013-02-06 03:29:00,57.6,52.5,29.93,NNE,28,0.0,1.0,83,0.00,,,0.00,VWS V14.01,2013-02-06 09:29:00,
2013-02-06 03:30:00,59.4,53.9,29.93,NNE,28,0.0,0.0,82,0.00,,,0.00,VWS V14.01,2013-02-06 09:30:00,
2013-02-06 03:34:00,58.2,52.7,29.94,NNE,28,0.0,0.0,82,0.00,,,0.00,VWS V14.01,2013-02-06 09:34:00,
2013-02-06 03:35:00,59.1,54.0,29.94,NNE,28,0.0,0.0,83,0.00,,,0.00,VWS V14.01,2013-02-06 09:35:00,
2013-02-06 03:39:00,58.2,52.7,29.94,NNE,28,0.0,0.0,82,0.00,,,0.00,VWS V14.01,2013-02-06 09:39:00,
2013-02-06 03:40:00,58.8,54.0,29.94,NNE,28,0.0,0.0,84,0.00,,,0.00,VWS V14.01,2013-02-06 09:40:00,
2013-02-06 03:44:00,58.4,53.3,29.94,NNE,28,0.0,0.0,83,0.00,,,0.00,VWS V14.01,2013-02-06 09:44:00,
2013-02-06 03:45:00,58.9,54.1,29.94,NNE,29,1.0,1.0,84,0.00,,,0.00,VWS V14.01,2013-02-06 09:45:00,
2013-02-06 03:49:00,58.6,53.5,29.94,NNE,28,0.0,0.0,83,0.00,,,0.00,VWS V14.01,2013-02-06 09:49:00,
2013-02-06 03:50:00,59.2,54.4,29.94,NNE,30,0.0,2.0,84,0.00,,,0.00,VWS V14.01,2013-02-06 09:50:00,
2013-02-06 03:54:00,58.6,53.5,29.94,NNE,28,0.0,0.0,83,0.00,,,0.00,VWS V14.01,2013-02-06 09:54:00,
2013-02-06 03:55:00,58.7,53.9,29.94,NNE,30,0.0,0.0,84,0.00,,,0.00,VWS V14.01,2013-02-06 09:55:00,
2013-02-06 03:59:00,59.1,54.0,29.94,NNE,28,0.0,0.0,83,0.00,,,0.00,VWS V14.01,2013-02-06 09:59:00,
2013-02-06 04:00:00,58.5,53.7,29.95,North,5,0.0,0.0,84,0.00,,,0.00,VWS V14.01,2013-02-06 10:00:00,
2013-02-06 04:04:00,59.0,53.2,29.94,NNE,28,0.0,0.0,81,0.00,,,0.00,VWS V14.01,2013-02-06 10:04:00,
2013-02-06 04:05:00,58.6,54.4,29.95,NNW,346,0.0,0.0,86,0.00,,,0.00,VWS V14.01,2013-02-06 10:05:00,
2013-02-06 04:09:00,58.9,53.4,29.94,NNE,28,0.0,0.0,82,0.00,,,0.00,VWS V14.01,2013-02-06 10:09:00,
2013-02-06 04:10:00,59.0,54.8,29.95,NNW,346,0.0,0.0,86,0.00,,,0.00,VWS V14.01,2013-02-06 10:10:00,
2013-02-06 04:14:00,58.9,53.8,29.94,NNE,28,0.0,0.0,83,0.00,,,0.00,VWS V14.01,2013-02-06 10:14:00,
2013-02-06 04:15:00,59.1,54.6,29.95,ENE,68,0.0,0.0,85,0.00,,,0.00,VWS V14.01,2013-02-06 10:15:00,
2013-02-06 04:19:00,59.1,54.3,29.94,NNE,28,0.0,0.0,84,0.00,,,0.00,VWS V14.01,2013-02-06 10:19:00,
2013-02-06 04:20:00,59.2,54.7,29.95,ENE,66,0.0,0.0,85,0.00,,,0.00,VWS V14.01,2013-02-06 10:20:00,
2013-02-06 04:24:00,59.4,54.6,29.94,NNE,28,0.0,0.0,84,0.00,,,0.00,VWS V14.01,2013-02-06 10:24:00,
2013-02-06 04:25:00,59.1,54.6,29.95,ENE,66,0.0,0.0,85,0.00,,,0.00,VWS V14.01,2013-02-06 10:25:00,
2013-02-06 04:29:00,59.5,54.3,29.93,NNE,28,0.0,0.0,83,0.00,,,0.00,VWS V14.01,2013-02-06 10:29:00,
2013-02-06 04:30:00,59.0,54.5,29.95,ENE,66,0.0,0.0,85,0.00,,,0.00,VWS V14.01,2013-02-06 10:30:00,
2013-02-06 04:34:00,59.1,54.0,29.94,NNE,28,0.0,0.0,83,0.00,,,0.00,VWS V14.01,2013-02-06 10:34:00,
2013-02-06 04:35:00,58.8,54.3,29.95,ENE,66,0.0,0.0,85,0.00,,,0.00,VWS V14.01,2013-02-06 10:35:00,
2013-02-06 04:39:00,58.8,54.0,29.94,NNE,28,0.0,0.0,84,0.00,,,0.00,VWS V14.01,2013-02-06 10:39:00,
2013-02-06 04:40:00,58.7,54.2,29.95,SSW,203,0.0,0.0,85,0.00,,,0.00,VWS V14.01,2013-02-06 10:40:00,
2013-02-06 04:44:00,58.9,54.1,29.94,NNE,28,0.0,0.0,84,0.00,,,0.00,VWS V14.01,2013-02-06 10:44:00,
2013-02-06 04:45:00,58.8,54.3,29.94,East,88,0.0,0.0,85,0.00,,,0.00,VWS V14.01,2013-02-06 10:45:00,
2013-02-06 04:49:00,59.2,54.4,29.94,NNE,30,0.0,2.0,84,0.00,,,0.00,VWS V14.01,2013-02-06 10:49:00,
2013-02-06 04:50:00,58.6,53.8,29.95,East,87,0.0,0.0,84,0.00,,,0.00,VWS V14.01,2013-02-06 10:50:00,
2013-02-06 04:54:00,58.7,53.9,29.94,NNE,30,0.0,0.0,84,0.00,,,0.00,VWS V14.01,2013-02-06 10:54:00,
2013-02-06 04:55:00,58.6,54.1,29.95,East,87,0.0,0.0,85,0.00,,,0.00,VWS V14.01,2013-02-06 10:55:00,
2013-02-06 04:59:00,58.6,53.8,29.94,NNE,25,0.0,0.0,84,0.00,,,0.00,VWS V14.01,2013-02-06 10:59:00,
2013-02-06 05:00:00,58.7,54.2,29.95,East,88,0.0,0.0,85,0.00,,,0.00,VWS V14.01,2013-02-06 11:00:00,
2013-02-06 05:04:00,58.6,54.4,29.95,NNW,345,0.0,0.0,86,0.00,,,0.00,VWS V14.01,2013-02-06 11:04:00,
2013-02-06 05:05:00,58.9,54.4,29.96,East,87,0.0,0.0,85,0.00,,,0.00,VWS V14.01,2013-02-06 11:05:00,
2013-02-06 05:09:00,58.9,54.4,29.95,NNW,346,0.0,0.0,85,0.00,,,0.00,VWS V14.01,2013-02-06 11:09:00,
2013-02-06 05:10:00,59.1,54.6,29.95,East,88,0.0,0.0,85,0.00,,,0.00,VWS V14.01,2013-02-06 11:10:00,
2013-02-06 05:14:00,59.1,54.9,29.95,NNW,345,0.0,0.0,86,0.00,,,0.00,VWS V14.01,2013-02-06 11:14:00,
2013-02-06 05:15:00,59.4,54.6,29.95,East,80,0.0,0.0,84,0.00,,,0.00,VWS V14.01,2013-02-06 11:15:00,
2013-02-06 05:19:00,59.2,54.7,29.95,ENE,66,0.0,0.0,85,0.00,,,0.00,VWS V14.01,2013-02-06 11:19:00,
2013-02-06 05:20:00,59.4,54.6,29.95,East,81,0.0,0.0,84,0.00,,,0.00,VWS V14.01,2013-02-06 11:20:00,
2013-02-06 05:24:00,59.1,54.6,29.95,ENE,68,0.0,0.0,85,0.00,,,0.00,VWS V14.01,2013-02-06 11:24:00,
2013-02-06 05:25:00,58.9,54.1,29.95,East,81,0.0,0.0,84,0.00,,,0.00,VWS V14.01,2013-02-06 11:25:00,
2013-02-06 05:29:00,59.0,54.5,29.95,ENE,66,0.0,0.0,85,0.00,,,0.00,VWS V14.01,2013-02-06 11:29:00,
2013-02-06 05:30:00,58.7,54.2,29.95,East,98,0.0,0.0,85,0.00,,,0.00,VWS V14.01,2013-02-06 11:30:00,
2013-02-06 05:34:00,58.8,54.3,29.95,ENE,66,0.0,0.0,85,0.00,,,0.00,VWS V14.01,2013-02-06 11:34:00,
2013-02-06 05:35:00,58.9,54.4,29.95,East,101,0.0,0.0,85,0.00,,,0.00,VWS V14.01,2013-02-06 11:35:00,
2013-02-06 05:39:00,58.7,54.2,29.95,ENE,67,0.0,0.0,85,0.00,,,0.00,VWS V14.01,2013-02-06 11:39:00,
2013-02-06 05:40:00,59.1,54.6,29.95,ESE,105,0.0,0.0,85,0.00,,,0.00,VWS V14.01,2013-02-06 11:40:00,
2013-02-06 05:44:00,58.8,54.3,29.94,SSW,203,0.0,0.0,85,0.00,,,0.00,VWS V14.01,2013-02-06 11:44:00,
2013-02-06 05:45:00,59.3,54.8,29.95,East,101,0.0,0.0,85,0.00,,,0.00,VWS V14.01,2013-02-06 11:45:00,
2013-02-06 05:49:00,58.7,54.2,29.95,East,88,0.0,0.0,85,0.00,,,0.00,VWS V14.01,2013-02-06 11:49:00,
2013-02-06 05:50:00,59.6,54.8,29.95,East,84,0.0,0.0,84,0.00,,,0.00,VWS V14.01,2013-02-06 11:50:00,
2013-02-06 05:54:00,58.6,54.1,29.95,East,87,0.0,0.0,85,0.00,,,0.00,VWS V14.01,2013-02-06 11:54:00,
2013-02-06 05:55:00,59.7,54.9,29.96,East,85,1.0,3.0,84,0.00,,,0.00,VWS V14.01,2013-02-06 11:55:00,
2013-02-06 05:59:00,58.7,54.2,29.95,East,87,0.0,0.0,85,0.00,,,0.00,VWS V14.01,2013-02-06 11:59:00,
2013-02-06 06:00:00,59.5,54.7,29.96,East,85,0.0,2.0,84,0.00,,,0.00,VWS V14.01,2013-02-06 12:00:00,
2013-02-06 06:04:00,58.9,54.4,29.96,East,88,0.0,0.0,85,0.00,,,0.00,VWS V14.01,2013-02-06 12:04:00,
2013-02-06 06:05:00,59.3,54.5,29.95,East,85,0.0,0.0,84,0.00,,,0.00,VWS V14.01,2013-02-06 12:05:00,
2013-02-06 06:09:00,59.1,54.6,29.95,East,87,0.0,0.0,85,0.00,,,0.00,VWS V14.01,2013-02-06 12:09:00,
2013-02-06 06:10:00,59.2,54.4,29.95,East,85,0.0,0.0,84,0.00,,,0.00,VWS V14.01,2013-02-06 12:10:00,
2013-02-06 06:14:00,59.3,54.8,29.95,East,80,0.0,0.0,85,0.00,,,0.00,VWS V14.01,2013-02-06 12:14:00,
2013-02-06 06:15:00,59.0,54.2,29.95,East,85,0.0,0.0,84,0.00,,,0.00,VWS V14.01,2013-02-06 12:15:00,
2013-02-06 06:19:00,59.4,54.6,29.95,East,81,0.0,0.0,84,0.00,,,0.00,VWS V14.01,2013-02-06 12:19:00,
2013-02-06 06:20:00,58.8,54.3,29.95,East,85,0.0,0.0,85,0.00,,,0.00,VWS V14.01,2013-02-06 12:20:00,
2013-02-06 06:24:00,59.0,54.2,29.95,East,81,0.0,0.0,84,0.00,,,0.00,VWS V14.01,2013-02-06 12:24:00,
2013-02-06 06:25:00,58.7,54.2,29.96,East,85,0.0,0.0,85,0.00,,,0.00,VWS V14.01,2013-02-06 12:25:00,
2013-02-06 06:29:00,58.8,54.3,29.95,East,81,0.0,0.0,85,0.00,,,0.00,VWS V14.01,2013-02-06 12:29:00,
2013-02-06 06:30:00,58.7,54.2,29.95,East,85,0.0,0.0,85,0.00,,,0.00,VWS V14.01,2013-02-06 12:30:00,
2013-02-06 06:34:00,58.9,54.4,29.95,East,101,0.0,0.0,85,0.00,,,0.00,VWS V14.01,2013-02-06 12:34:00,
2013-02-06 06:35:00,58.8,54.3,29.95,East,85,0.0,0.0,85,0.00,,,0.00,VWS V14.01,2013-02-06 12:35:00,
2013-02-06 06:39:00,59.1,54.6,29.96,ESE,105,0.0,0.0,85,0.00,,,0.00,VWS V14.01,2013-02-06 12:39:00,
2013-02-06 06:40:00,58.8,54.3,29.96,East,85,0.0,0.0,85,0.00,,,0.00,VWS V14.01,2013-02-06 12:40:00,
2013-02-06 06:44:00,59.3,54.8,29.96,ESE,102,0.0,0.0,85,0.00,,,0.00,VWS V14.01,2013-02-06 12:44:00,
2013-02-06 06:45:00,58.9,54.7,29.96,ENE,71,0.0,0.0,86,0.00,,,0.00,VWS V14.01,2013-02-06 12:45:00,
2013-02-06 06:49:00,59.5,55.0,29.95,East,85,0.0,0.0,85,0.00,,,0.00,VWS V14.01,2013-02-06 12:49:00,
2013-02-06 06:50:00,58.9,54.4,29.96,ENE,71,0.0,0.0,85,0.00,,,0.00,VWS V14.01,2013-02-06 12:50:00,
2013-02-06 06:54:00,59.7,54.9,29.96,East,85,0.0,3.0,84,0.00,,,0.00,VWS V14.01,2013-02-06 12:54:00,
2013-02-06 06:55:00,58.9,54.4,29.97,ENE,71,0.0,0.0,85,0.00,,,0.00,VWS V14.01,2013-02-06 12:55:00,
2013-02-06 06:59:00,59.6,54.8,29.96,East,85,1.0,2.0,84,0.00,,,0.00,VWS V14.01,2013-02-06 12:59:00,
2013-02-06 07:00:00,59.0,54.5,29.96,ENE,72,0.0,0.0,85,0.00,,,0.00,VWS V14.01,2013-02-06 13:00:00,
2013-02-06 07:04:00,59.3,54.5,29.95,East,85,0.0,0.0,84,0.00,,,0.00,VWS V14.01,2013-02-06 13:04:00,
2013-02-06 07:05:00,59.0,54.8,29.96,ENE,59,2.0,2.0,86,0.00,,,0.00,VWS V14.01,2013-02-06 13:05:00,
2013-02-06 07:09:00,59.2,54.4,29.95,East,85,0.0,0.0,84,0.00,,,0.00,VWS V14.01,2013-02-06 13:09:00,
2013-02-06 07:10:00,59.5,55.3,29.96,East,85,3.0,4.0,86,0.00,,,0.00,VWS V14.01,2013-02-06 13:10:00,
2013-02-06 07:14:00,59.1,54.6,29.95,East,85,0.0,0.0,85,0.00,,,0.00,VWS V14.01,2013-02-06 13:14:00,
2013-02-06 07:15:00,60.0,55.8,29.96,East,81,1.0,4.0,86,0.00,,,0.00,VWS V14.01,2013-02-06 13:15:00,
2013-02-06 07:19:00,58.9,54.4,29.95,East,85,0.0,0.0,85,0.00,,,0.00,VWS V14.01,2013-02-06 13:19:00,
2013-02-06 07:20:00,60.3,55.8,29.96,East,92,3.0,3.0,85,0.00,,,0.00,VWS V14.01,2013-02-06 13:20:00,
2013-02-06 07:24:00,58.7,54.2,29.96,East,85,0.0,0.0,85,0.00,,,0.00,VWS V14.01,2013-02-06 13:24:00,
2013-02-06 07:25:00,60.5,56.0,29.96,ENE,74,2.0,4.0,85,0.00,,,0.00,VWS V14.01,2013-02-06 13:25:00,
2013-02-06 07:29:00,58.7,54.2,29.95,East,85,0.0,0.0,85,0.00,,,0.00,VWS V14.01,2013-02-06 13:29:00,
2013-02-06 07:30:00,60.7,55.8,29.96,East,98,2.0,4.0,84,0.00,,,0.00,VWS V14.01,2013-02-06 13:30:00,
2013-02-06 07:34:00,58.8,54.3,29.95,East,85,0.0,0.0,85,0.00,,,0.00,VWS V14.01,2013-02-06 13:34:00,
2013-02-06 07:35:00,60.8,55.9,29.96,East,101,3.0,5.0,84,0.00,,,0.00,VWS V14.01,2013-02-06 13:35:00,
2013-02-06 07:39:00,58.8,54.3,29.96,East,85,0.0,0.0,85,0.00,,,0.00,VWS V14.01,2013-02-06 13:39:00,
2013-02-06 07:40:00,61.0,56.1,29.96,East,97,2.0,5.0,84,0.00,,,0.00,VWS V14.01,2013-02-06 13:40:00,
2013-02-06 07:44:00,58.9,54.7,29.96,ENE,71,0.0,0.0,86,0.00,,,0.00,VWS V14.01,2013-02-06 13:44:00,
2013-02-06 07:45:00,61.1,56.2,29.96,ESE,116,4.0,6.0,84,0.00,,,0.00,VWS V14.01,2013-02-06 13:45:00,
2013-02-06 07:49:00,58.9,54.4,29.96,ENE,71,0.0,0.0,85,0.00,,,0.00,VWS V14.01,2013-02-06 13:49:00,
2013-02-06 07:50:00,61.3,56.1,29.96,East,97,4.0,7.0,83,0.00,,,0.00,VWS V14.01,2013-02-06 13:50:00,
2013-02-06 07:54:00,58.9,54.4,29.97,ENE,71,0.0,0.0,85,0.00,,,0.00,VWS V14.01,2013-02-06 13:54:00,
2013-02-06 07:55:00,61.7,56.5,29.96,ESE,113,5.0,8.0,83,0.00,,,0.00,VWS V14.01,2013-02-06 13:55:00,
2013-02-06 07:59:00,59.0,54.8,29.97,ENE,71,0.0,0.0,86,0.00,,,0.00,VWS V14.01,2013-02-06 13:59:00,
2013-02-06 08:00:00,62.0,56.5,29.96,ESE,123,6.0,9.0,82,0.00,,,0.00,VWS V14.01,2013-02-06 14:00:00,
2013-02-06 08:04:00,59.0,54.8,29.96,NE,56,0.0,0.0,86,0.00,,,0.00,VWS V14.01,2013-02-06 14:04:00,
2013-02-06 08:05:00,62.1,56.2,29.96,ESE,119,5.0,11.0,81,0.00,,,0.00,VWS V14.01,2013-02-06 14:05:00,
2013-02-06 08:09:00,59.4,55.2,29.96,East,90,2.0,4.0,86,0.00,,,0.00,VWS V14.01,2013-02-06 14:09:00,
2013-02-06 08:10:00,62.0,56.5,29.96,ESE,116,4.0,8.0,82,0.00,,,0.00,VWS V14.01,2013-02-06 14:10:00,
2013-02-06 08:14:00,59.9,55.7,29.96,East,80,2.0,4.0,86,0.00,,,0.00,VWS V14.01,2013-02-06 14:14:00,
2013-02-06 08:15:00,62.2,56.7,29.96,ESE,120,3.0,7.0,82,0.00,,,0.00,VWS V14.01,2013-02-06 14:15:00,
2013-02-06 08:19:00,60.2,55.7,29.96,East,87,2.0,3.0,85,0.00,,,0.00,VWS V14.01,2013-02-06 14:19:00,
2013-02-06 08:20:00,63.0,57.1,29.97,ESE,116,7.0,9.0,81,0.00,,,0.00,VWS V14.01,2013-02-06 14:20:00,
2013-02-06 08:24:00,60.4,55.9,29.96,East,85,2.0,4.0,85,0.00,,,0.00,VWS V14.01,2013-02-06 14:24:00,
2013-02-06 08:25:00,63.6,57.3,29.97,SE,136,6.0,10.0,80,0.00,,,0.00,VWS V14.01,2013-02-06 14:25:00,
2013-02-06 08:29:00,60.6,56.1,29.96,SE,124,4.0,4.0,85,0.00,,,0.00,VWS V14.01,2013-02-06 14:29:00,
2013-02-06 08:30:00,63.7,57.1,29.96,ESE,104,6.0,11.0,79,0.00,,,0.00,VWS V14.01,2013-02-06 14:30:00,
2013-02-06 08:34:00,60.8,55.9,29.96,ESE,104,3.0,4.0,84,0.00,,,0.00,VWS V14.01,2013-02-06 14:34:00,
2013-02-06 08:35:00,63.6,57.0,29.96,SE,146,5.0,11.0,79,0.00,,,0.00,VWS V14.01,2013-02-06 14:35:00,
2013-02-06 08:39:00,60.9,56.0,29.96,East,98,3.0,5.0,84,0.00,,,0.00,VWS V14.01,2013-02-06 14:39:00,
2013-02-06 08:40:00,64.2,57.9,29.97,SE,136,8.0,12.0,80,0.00,,,0.00,VWS V14.01,2013-02-06 14:40:00,
2013-02-06 08:44:00,61.1,56.2,29.96,ESE,108,3.0,6.0,84,0.00,,,0.00,VWS V14.01,2013-02-06 14:44:00,
2013-02-06 08:45:00,64.5,57.5,29.96,SE,125,11.0,16.0,78,0.00,,,0.00,VWS V14.01,2013-02-06 14:45:00,
2013-02-06 08:49:00,61.2,56.0,29.96,ESE,105,5.0,7.0,83,0.00,,,0.00,VWS V14.01,2013-02-06 14:49:00,
2013-02-06 08:50:00,64.0,57.4,29.97,SSE,150,4.0,13.0,79,0.00,,,0.00,VWS V14.01,2013-02-06 14:50:00,
2013-02-06 08:53:00,61.5,56.3,29.96,SE,126,6.0,8.0,83,0.00,,,0.00,VWS V14.01,2013-02-06 14:53:00,
2013-02-06 08:55:00,63.8,57.2,29.96,SE,133,11.0,13.0,79,0.00,,,0.00,VWS V14.01,2013-02-06 14:55:00,
2013-02-06 08:58:00,62.0,56.5,29.96,ESE,120,8.0,9.0,82,0.00,,,0.00,VWS V14.01,2013-02-06 14:58:00,
2013-02-06 09:00:00,63.8,57.5,29.96,SSE,154,8.0,13.0,80,0.00,,,0.00,VWS V14.01,2013-02-06 15:00:00,
2013-02-06 09:03:00,62.1,56.5,29.97,ESE,116,10.0,10.0,82,0.00,,,0.00,VWS V14.01,2013-02-06 15:03:00,
2013-02-06 09:05:00,64.1,57.8,29.97,SE,142,7.0,11.0,80,0.00,,,0.00,VWS V14.01,2013-02-06 15:05:00,
2013-02-06 09:08:00,62.0,56.5,29.96,SE,126,5.0,7.0,82,0.00,,,0.00,VWS V14.01,2013-02-06 15:08:00,
2013-02-06 09:10:00,64.2,57.6,29.96,SE,130,9.0,12.0,79,0.00,,,0.00,VWS V14.01,2013-02-06 15:10:00,
2013-02-06 09:13:00,62.1,56.5,29.97,ESE,112,5.0,7.0,82,0.00,,,0.00,VWS V14.01,2013-02-06 15:13:00,
2013-02-06 09:15:00,64.0,57.7,29.97,SE,143,6.0,13.0,80,0.00,,,0.00,VWS V14.01,2013-02-06 15:15:00,
2013-02-06 09:18:00,62.8,57.2,29.97,SSE,149,6.0,9.0,82,0.00,,,0.00,VWS V14.01,2013-02-06 15:18:00,
2013-02-06 09:20:00,64.1,57.8,29.97,SE,136,10.0,12.0,80,0.00,,,0.00,VWS V14.01,2013-02-06 15:20:00,
2013-02-06 09:23:00,63.4,57.5,29.97,SE,128,6.0,10.0,81,0.00,,,0.00,VWS V14.01,2013-02-06 15:23:00,
2013-02-06 09:25:00,64.0,57.7,29.96,SSE,150,6.0,15.0,80,0.00,,,0.00,VWS V14.01,2013-02-06 15:25:00,
2013-02-06 09:28:00,63.9,57.3,29.97,ESE,111,10.0,11.0,79,0.00,,,0.00,VWS V14.01,2013-02-06 15:28:00,
2013-02-06 09:30:00,64.2,57.9,29.96,SSE,164,7.0,9.0,80,0.00,,,0.00,VWS V14.01,2013-02-06 15:30:00,
2013-02-06 09:33:00,63.7,57.4,29.96,SE,130,7.0,11.0,80,0.00,,,0.00,VWS V14.01,2013-02-06 15:33:00,
2013-02-06 09:35:00,64.9,58.2,29.96,SE,142,6.0,10.0,79,0.00,,,0.00,VWS V14.01,2013-02-06 15:35:00,
2013-02-06 09:38:00,63.9,57.6,29.96,SE,131,8.0,11.0,80,0.00,,,0.00,VWS V14.01,2013-02-06 15:38:00,
2013-02-06 09:40:00,65.0,58.0,29.96,SE,132,9.0,13.0,78,0.00,,,0.00,VWS V14.01,2013-02-06 15:40:00,
2013-02-06 09:43:00,64.7,57.7,29.96,SE,128,15.0,15.0,78,0.00,,,0.00,VWS V14.01,2013-02-06 15:43:00,
2013-02-06 09:45:00,65.2,58.2,29.95,SE,130,11.0,13.0,78,0.00,,,0.00,VWS V14.01,2013-02-06 15:45:00,
2013-02-06 09:48:00,64.2,57.6,29.97,SE,140,8.0,13.0,79,0.00,,,0.00,VWS V14.01,2013-02-06 15:48:00,
2013-02-06 09:50:00,65.0,58.0,29.95,SE,126,13.0,16.0,78,0.00,,,0.00,VWS V14.01,2013-02-06 15:50:00,
2013-02-06 09:53:00,63.9,57.6,29.96,SE,128,10.0,13.0,80,0.00,,,0.00,VWS V14.01,2013-02-06 15:53:00,
2013-02-06 09:55:00,64.8,58.1,29.95,SE,133,13.0,14.0,79,0.00,,,0.00,VWS V14.01,2013-02-06 15:55:00,
2013-02-06 09:58:00,63.7,57.4,29.96,SE,125,13.0,13.0,80,0.00,,,0.00,VWS V14.01,2013-02-06 15:58:00,
2013-02-06 10:00:00,64.9,58.2,29.95,SE,133,12.0,15.0,79,0.00,,,0.00,VWS V14.01,2013-02-06 16:00:00,
2013-02-06 10:03:00,64.0,57.7,29.97,SE,136,6.0,10.0,80,0.00,,,0.00,VWS V14.01,2013-02-06 16:03:00,
2013-02-06 10:05:00,64.9,58.2,29.95,ESE,118,8.0,14.0,79,0.00,,,0.00,VWS V14.01,2013-02-06 16:05:00,
2013-02-06 10:08:00,64.2,57.9,29.97,SE,136,7.0,11.0,80,0.00,,,0.00,VWS V14.01,2013-02-06 16:08:00,
2013-02-06 10:10:00,65.6,58.6,29.95,ESE,118,10.0,12.0,78,0.00,,,0.00,VWS V14.01,2013-02-06 16:10:00,
2013-02-06 10:13:00,64.1,57.5,29.97,SE,144,6.0,13.0,79,0.00,,,0.00,VWS V14.01,2013-02-06 16:13:00,
2013-02-06 10:15:00,65.8,58.4,29.95,SE,128,7.0,14.0,77,0.00,,,0.00,VWS V14.01,2013-02-06 16:15:00,
2013-02-06 10:18:00,64.1,57.8,29.97,ESE,120,9.0,9.0,80,0.00,,,0.00,VWS V14.01,2013-02-06 16:18:00,
2013-02-06 10:20:00,65.9,58.5,29.95,SE,134,8.0,12.0,77,0.00,,,0.00,VWS V14.01,2013-02-06 16:20:00,
2013-02-06 10:23:00,63.9,57.6,29.96,SSE,160,6.0,15.0,80,0.00,,,0.00,VWS V14.01,2013-02-06 16:23:00,
2013-02-06 10:25:00,65.8,58.8,29.95,SE,126,10.0,13.0,78,0.00,,,0.00,VWS V14.01,2013-02-06 16:25:00,
2013-02-06 10:28:00,64.1,57.8,29.96,SSE,160,5.0,9.0,80,0.00,,,0.00,VWS V14.01,2013-02-06 16:28:00,
2013-02-06 10:30:00,65.6,58.6,29.94,SE,126,7.0,11.0,78,0.00,,,0.00,VWS V14.01,2013-02-06 16:30:00,
2013-02-06 10:33:00,64.7,58.4,29.96,SE,132,8.0,9.0,80,0.00,,,0.00,VWS V14.01,2013-02-06 16:33:00,
2013-02-06 10:35:00,65.7,58.7,29.94,ESE,120,10.0,12.0,78,0.00,,,0.00,VWS V14.01,2013-02-06 16:35:00,
2013-02-06 10:38:00,65.0,58.3,29.96,ESE,118,8.0,13.0,79,0.00,,,0.00,VWS V14.01,2013-02-06 16:38:00,
2013-02-06 10:40:00,65.9,58.8,29.94,SSE,151,8.0,11.0,78,0.00,,,0.00,VWS V14.01,2013-02-06 16:40:00,
2013-02-06 10:43:00,65.2,58.5,29.96,SE,146,5.0,11.0,79,0.00,,,0.00,VWS V14.01,2013-02-06 16:43:00,
2013-02-06 10:45:00,66.0,58.6,29.93,SSE,164,7.0,13.0,77,0.00,,,0.00,VWS V14.01,2013-02-06 16:45:00,
2013-02-06 10:48:00,65.0,58.0,29.95,SE,136,10.0,12.0,78,0.00,,,0.00,VWS V14.01,2013-02-06 16:48:00,
2013-02-06 10:50:00,66.1,58.7,29.93,SE,129,7.0,12.0,77,0.00,,,0.00,VWS V14.01,2013-02-06 16:50:00,
2013-02-06 10:53:00,64.8,58.1,29.96,SSE,149,8.0,14.0,79,0.00,,,0.00,VWS V14.01,2013-02-06 16:53:00,
2013-02-06 10:55:00,66.4,58.6,29.93,SE,137,5.0,8.0,76,0.00,,,0.00,VWS V14.01,2013-02-06 16:55:00,
2013-02-06 10:58:00,64.7,58.0,29.95,ESE,113,9.0,15.0,79,0.00,,,0.00,VWS V14.01,2013-02-06 16:58:00,
2013-02-06 11:00:00,66.6,58.4,29.92,South,177,5.0,9.0,75,0.00,,,0.00,VWS V14.01,2013-02-06 17:00:00,
2013-02-06 11:03:00,64.9,58.2,29.95,SE,136,12.0,14.0,79,0.00,,,0.00,VWS V14.01,2013-02-06 17:03:00,
2013-02-06 11:05:00,67.0,58.5,29.92,ESE,108,7.0,10.0,74,0.00,,,0.00,VWS V14.01,2013-02-06 17:05:00,
2013-02-06 11:08:00,65.4,58.7,29.95,SE,126,8.0,12.0,79,0.00,,,0.00,VWS V14.01,2013-02-06 17:08:00,
2013-02-06 11:10:00,67.1,58.5,29.92,SSW,201,3.0,11.0,74,0.00,,,0.00,VWS V14.01,2013-02-06 17:10:00,
2013-02-06 11:13:00,65.8,58.8,29.95,SE,144,6.0,14.0,78,0.00,,,0.00,VWS V14.01,2013-02-06 17:13:00,
2013-02-06 11:15:00,67.2,58.6,29.92,SSE,149,4.0,9.0,74,0.00,,,0.00,VWS V14.01,2013-02-06 17:15:00,
2013-02-06 11:18:00,65.9,58.5,29.95,SE,135,10.0,12.0,77,0.00,,,0.00,VWS V14.01,2013-02-06 17:18:00,
2013-02-06 11:20:00,67.3,58.7,29.91,ENE,61,2.0,8.0,74,0.00,,,0.00,VWS V14.01,2013-02-06 17:20:00,
2013-02-06 11:23:00,65.8,58.4,29.95,SE,126,6.0,9.0,77,0.00,,,0.00,VWS V14.01,2013-02-06 17:23:00,
2013-02-06 11:25:00,67.7,58.7,29.91,SE,137,6.0,12.0,73,0.00,,,0.00,VWS V14.01,2013-02-06 17:25:00,
2013-02-06 11:28:00,65.6,58.6,29.94,ESE,108,7.0,11.0,78,0.00,,,0.00,VWS V14.01,2013-02-06 17:28:00,
2013-02-06 11:30:00,68.0,59.4,29.91,SSE,150,2.0,10.0,74,0.00,,,0.00,VWS V14.01,2013-02-06 17:30:00,
2013-02-06 11:33:00,65.8,58.4,29.94,SE,126,6.0,12.0,77,0.00,,,0.00,VWS V14.01,2013-02-06 17:33:00,
2013-02-06 11:35:00,68.4,58.6,29.91,South,186,3.0,10.0,71,0.00,,,0.00,VWS V14.01,2013-02-06 17:35:00,
2013-02-06 11:38:00,65.9,58.5,29.94,SSE,147,8.0,11.0,77,0.00,,,0.00,VWS V14.01,2013-02-06 17:38:00,
2013-02-06 11:40:00,68.2,58.5,29.90,SSE,167,4.0,8.0,71,0.00,,,0.00,VWS V14.01,2013-02-06 17:40:00,
2013-02-06 11:45:00,69.0,58.8,29.90,ESE,102,6.0,9.0,70,0.00,,,0.00,VWS V14.01,2013-02-06 17:45:00,
2013-02-06 11:48:00,66.0,58.6,29.93,SE,142,7.0,12.0,77,0.00,,,0.00,VWS V14.01,2013-02-06 17:48:00,
2013-02-06 11:50:00,69.0,59.2,29.89,ESE,113,7.0,10.0,71,0.00,,,0.00,VWS V14.01,2013-02-06 17:50:00,
2013-02-06 11:53:00,66.4,59.3,29.93,ESE,115,5.0,8.0,78,0.00,,,0.00,VWS V14.01,2013-02-06 17:53:00,
2013-02-06 11:55:00,69.4,59.2,29.89,SSE,149,7.0,9.0,70,0.00,,,0.00,VWS V14.01,2013-02-06 17:55:00,
2013-02-06 11:58:00,66.4,58.6,29.93,SE,142,5.0,8.0,76,0.00,,,0.00,VWS V14.01,2013-02-06 17:58:00,
2013-02-06 12:00:00,69.5,58.9,29.89,SE,142,8.0,14.0,69,0.00,,,0.00,VWS V14.01,2013-02-06 18:00:00,
2013-02-06 12:03:00,67.1,59.3,29.92,SE,133,8.0,10.0,76,0.00,,,0.00,VWS V14.01,2013-02-06 18:03:00,
2013-02-06 12:05:00,69.5,58.9,29.89,SW,220,4.0,13.0,69,0.00,,,0.00,VWS V14.01,2013-02-06 18:05:00,
2013-02-06 12:08:00,67.1,59.3,29.92,SSE,163,7.0,11.0,76,0.00,,,0.00,VWS V14.01,2013-02-06 18:08:00,
2013-02-06 12:10:00,70.3,58.8,29.88,SE,127,9.0,12.0,67,0.00,,,0.00,VWS V14.01,2013-02-06 18:10:00,
2013-02-06 12:13:00,67.3,59.1,29.92,SSE,147,7.0,9.0,75,0.00,,,0.00,VWS V14.01,2013-02-06 18:13:00,
2013-02-06 12:15:00,70.0,58.1,29.88,ESE,104,6.0,12.0,66,0.00,,,0.00,VWS V14.01,2013-02-06 18:15:00,
2013-02-06 12:18:00,67.3,58.7,29.91,ESE,123,7.0,8.0,74,0.00,,,0.00,VWS V14.01,2013-02-06 18:18:00,
2013-02-06 12:20:00,70.7,59.2,29.87,SE,133,11.0,11.0,67,0.00,,,0.00,VWS V14.01,2013-02-06 18:20:00,
2013-02-06 12:23:00,67.6,59.0,29.91,SSE,149,11.0,12.0,74,0.00,,,0.00,VWS V14.01,2013-02-06 18:23:00,
2013-02-06 12:25:00,71.1,58.8,29.87,SSE,156,2.0,11.0,65,0.00,,,0.00,VWS V14.01,2013-02-06 18:25:00,
2013-02-06 12:28:00,67.7,58.7,29.91,SSE,156,8.0,10.0,73,0.00,,,0.00,VWS V14.01,2013-02-06 18:28:00,
2013-02-06 12:30:00,71.2,58.8,29.87,SE,130,3.0,10.0,65,0.00,,,0.00,VWS V14.01,2013-02-06 18:30:00,
2013-02-06 12:33:00,68.4,58.6,29.91,SSE,163,5.0,10.0,71,0.00,,,0.00,VWS V14.01,2013-02-06 18:33:00,
2013-02-06 12:35:00,70.6,58.3,29.87,ESE,115,2.0,9.0,65,0.00,,,0.00,VWS V14.01,2013-02-06 18:35:00,
2013-02-06 12:38:00,68.1,58.3,29.90,SSE,163,2.0,8.0,71,0.00,,,0.00,VWS V14.01,2013-02-06 18:38:00,
2013-02-06 12:40:00,70.9,59.8,29.86,SSE,157,4.0,7.0,68,0.00,,,0.00,VWS V14.01,2013-02-06 18:40:00,
2013-02-06 12:43:00,68.8,59.0,29.90,South,182,4.0,7.0,71,0.00,,,0.00,VWS V14.01,2013-02-06 18:43:00,
2013-02-06 12:45:00,71.7,58.9,29.86,SSE,156,10.0,15.0,64,0.00,,,0.00,VWS V14.01,2013-02-06 18:45:00,
2013-02-06 12:48:00,68.9,58.7,29.89,NE,53,2.0,10.0,70,0.00,,,0.00,VWS V14.01,2013-02-06 18:48:00,
2013-02-06 12:50:00,70.7,58.8,29.86,SSE,163,2.0,11.0,66,0.00,,,0.00,VWS V14.01,2013-02-06 18:50:00,
2013-02-06 12:53:00,69.3,59.1,29.89,ESE,116,5.0,9.0,70,0.00,,,0.00,VWS V14.01,2013-02-06 18:53:00,
2013-02-06 12:55:00,70.7,58.8,29.85,ESE,113,7.0,11.0,66,0.00,,,0.00,VWS V14.01,2013-02-06 18:55:00,
2013-02-06 12:58:00,69.7,58.7,29.89,SE,137,11.0,14.0,68,0.00,,,0.00,VWS V14.01,2013-02-06 18:58:00,
2013-02-06 13:00:00,70.7,59.2,29.85,SE,135,8.0,12.0,67,0.00,,,0.00,VWS V14.01,2013-02-06 19:00:00,
2013-02-06 13:03:00,69.6,59.0,29.89,SE,126,3.0,13.0,69,0.00,,,0.00,VWS V14.01,2013-02-06 19:03:00,
2013-02-06 13:05:00,70.8,59.3,29.85,SE,134,5.0,11.0,67,0.00,,,0.00,VWS V14.01,2013-02-06 19:05:00,
2013-02-06 13:08:00,69.9,59.3,29.88,SE,139,9.0,11.0,69,0.00,,,0.00,VWS V14.01,2013-02-06 19:08:00,
2013-02-06 13:10:00,71.3,58.9,29.84,SE,132,7.0,12.0,65,0.00,,,0.00,VWS V14.01,2013-02-06 19:10:00,
2013-02-06 13:13:00,70.2,58.7,29.88,ESE,106,5.0,12.0,67,0.00,,,0.00,VWS V14.01,2013-02-06 19:13:00,
2013-02-06 13:15:00,71.4,59.5,29.84,East,92,6.0,9.0,66,0.00,,,0.00,VWS V14.01,2013-02-06 19:15:00,
2013-02-06 13:18:00,70.3,59.2,29.87,SSE,161,5.0,7.0,68,0.00,,,0.00,VWS V14.01,2013-02-06 19:18:00,
2013-02-06 13:20:00,71.8,59.0,29.83,ESE,116,6.0,8.0,64,0.00,,,0.00,VWS V14.01,2013-02-06 19:20:00,
2013-02-06 13:23:00,71.0,59.1,29.88,South,181,6.0,11.0,66,0.00,,,0.00,VWS V14.01,2013-02-06 19:23:00,
2013-02-06 13:25:00,71.7,59.3,29.83,East,85,6.0,8.0,65,0.00,,,0.00,VWS V14.01,2013-02-06 19:25:00,
2013-02-06 13:28:00,71.2,58.8,29.87,SE,133,7.0,10.0,65,0.00,,,0.00,VWS V14.01,2013-02-06 19:28:00,
2013-02-06 13:30:00,72.5,59.6,29.82,SE,127,8.0,11.0,64,0.00,,,0.00,VWS V14.01,2013-02-06 19:30:00,
2013-02-06 13:33:00,70.9,58.6,29.87,SSE,165,3.0,9.0,65,0.00,,,0.00,VWS V14.01,2013-02-06 19:33:00,
2013-02-06 13:35:00,72.6,59.3,29.82,ESE,116,7.0,13.0,63,0.00,,,0.00,VWS V14.01,2013-02-06 19:35:00,
2013-02-06 13:38:00,70.5,58.6,29.86,ENE,57,0.0,7.0,66,0.00,,,0.00,VWS V14.01,2013-02-06 19:38:00,
2013-02-06 13:40:00,72.7,58.9,29.82,SSE,147,4.0,13.0,62,0.00,,,0.00,VWS V14.01,2013-02-06 19:40:00,
2013-02-06 13:43:00,71.6,59.2,29.86,SE,137,7.0,15.0,65,0.00,,,0.00,VWS V14.01,2013-02-06 19:43:00,
2013-02-06 13:45:00,72.7,59.4,29.82,ESE,109,8.0,10.0,63,0.00,,,0.00,VWS V14.01,2013-02-06 19:45:00,
2013-02-06 13:48:00,71.0,58.7,29.86,SSE,165,4.0,11.0,65,0.00,,,0.00,VWS V14.01,2013-02-06 19:48:00,
2013-02-06 13:50:00,73.0,59.2,29.82,SE,129,10.0,13.0,62,0.00,,,0.00,VWS V14.01,2013-02-06 19:50:00,
2013-02-06 13:53:00,70.7,58.8,29.86,ESE,123,7.0,11.0,66,0.00,,,0.00,VWS V14.01,2013-02-06 19:53:00,
2013-02-06 13:55:00,72.7,59.4,29.82,SE,139,7.0,14.0,63,0.00,,,0.00,VWS V14.01,2013-02-06 19:55:00,
2013-02-06 13:58:00,70.9,59.0,29.85,ESE,123,9.0,12.0,66,0.00,,,0.00,VWS V14.01,2013-02-06 19:58:00,
2013-02-06 14:00:00,72.9,59.1,29.82,SE,143,6.0,13.0,62,0.00,,,0.00,VWS V14.01,2013-02-06 20:00:00,
2013-02-06 14:03:00,70.8,58.9,29.85,SE,129,6.0,11.0,66,0.00,,,0.00,VWS V14.01,2013-02-06 20:03:00,
2013-02-06 14:05:00,73.3,59.5,29.82,SSE,147,9.0,10.0,62,0.00,,,0.00,VWS V14.01,2013-02-06 20:05:00,
2013-02-06 14:08:00,70.9,59.0,29.85,SE,137,6.0,6.0,66,0.00,,,0.00,VWS V14.01,2013-02-06 20:08:00,
2013-02-06 14:10:00,73.2,59.4,29.81,SE,137,13.0,13.0,62,0.00,,,0.00,VWS V14.01,2013-02-06 20:10:00,
2013-02-06 14:13:00,71.4,59.0,29.84,ESE,113,7.0,9.0,65,0.00,,,0.00,VWS V14.01,2013-02-06 20:13:00,
2013-02-06 14:15:00,73.0,59.2,29.81,ESE,106,8.0,16.0,62,0.00,,,0.00,VWS V14.01,2013-02-06 20:15:00,
2013-02-06 14:18:00,71.7,59.8,29.84,SE,139,5.0,8.0,66,0.00,,,0.00,VWS V14.01,2013-02-06 20:18:00,
2013-02-06 14:20:00,73.1,59.3,29.81,South,175,7.0,14.0,62,0.00,,,0.00,VWS V14.01,2013-02-06 20:20:00,
2013-02-06 14:23:00,71.9,59.1,29.83,ESE,109,3.0,8.0,64,0.00,,,0.00,VWS V14.01,2013-02-06 20:23:00,
2013-02-06 14:25:00,72.9,59.1,29.81,SE,143,7.0,15.0,62,0.00,,,0.00,VWS V14.01,2013-02-06 20:25:00,
2013-02-06 14:28:00,72.2,59.4,29.82,ESE,122,7.0,11.0,64,0.00,,,0.00,VWS V14.01,2013-02-06 20:28:00,
2013-02-06 14:30:00,73.0,59.2,29.80,SSE,164,7.0,13.0,62,0.00,,,0.00,VWS V14.01,2013-02-06 20:30:00,
2013-02-06 14:33:00,72.6,59.7,29.82,SE,137,8.0,13.0,64,0.00,,,0.00,VWS V14.01,2013-02-06 20:33:00,
2013-02-06 14:35:00,73.0,59.2,29.80,ESE,116,11.0,15.0,62,0.00,,,0.00,VWS V14.01,2013-02-06 20:35:00,
2013-02-06 14:38:00,72.7,58.9,29.82,SE,137,6.0,13.0,62,0.00,,,0.00,VWS V14.01,2013-02-06 20:38:00,
2013-02-06 14:40:00,73.1,59.8,29.80,ESE,117,10.0,11.0,63,0.00,,,0.00,VWS V14.01,2013-02-06 20:40:00,
2013-02-06 14:43:00,72.7,59.4,29.82,East,92,8.0,10.0,63,0.00,,,0.00,VWS V14.01,2013-02-06 20:43:00,
2013-02-06 14:45:00,73.1,59.3,29.80,ESE,123,7.0,14.0,62,0.00,,,0.00,VWS V14.01,2013-02-06 20:45:00,
2013-02-06 14:48:00,72.9,59.6,29.82,SE,133,9.0,11.0,63,0.00,,,0.00,VWS V14.01,2013-02-06 20:48:00,
2013-02-06 14:50:00,73.3,59.5,29.80,SSE,156,4.0,11.0,62,0.00,,,0.00,VWS V14.01,2013-02-06 20:50:00,
2013-02-06 14:53:00,72.7,59.4,29.82,ESE,118,9.0,14.0,63,0.00,,,0.00,VWS V14.01,2013-02-06 20:53:00,
2013-02-06 14:55:00,73.3,59.5,29.79,SSE,154,9.0,12.0,62,0.00,,,0.00,VWS V14.01,2013-02-06 20:55:00,
2013-02-06 14:58:00,72.8,59.0,29.82,SE,136,10.0,13.0,62,0.00,,,0.00,VWS V14.01,2013-02-06 20:58:00,
2013-02-06 15:00:00,73.6,59.8,29.79,SE,128,11.0,13.0,62,0.00,,,0.00,VWS V14.01,2013-02-06 21:00:00,
2013-02-06 15:03:00,73.3,60.0,29.82,ESE,106,7.0,10.0,63,0.00,,,0.00,VWS V14.01,2013-02-06 21:03:00,
2013-02-06 15:05:00,73.7,59.9,29.79,East,99,7.0,14.0,62,0.00,,,0.00,VWS V14.01,2013-02-06 21:05:00,
2013-02-06 15:08:00,73.4,59.2,29.82,SE,125,9.0,11.0,61,0.00,,,0.00,VWS V14.01,2013-02-06 21:08:00,
2013-02-06 15:10:00,74.0,59.2,29.79,ESE,118,8.0,14.0,60,0.00,,,0.00,VWS V14.01,2013-02-06 21:10:00,
2013-02-06 15:13:00,73.1,59.3,29.82,ESE,116,11.0,16.0,62,0.00,,,0.00,VWS V14.01,2013-02-06 21:13:00,
2013-02-06 15:15:00,73.9,59.6,29.79,SE,129,10.0,10.0,61,0.00,,,0.00,VWS V14.01,2013-02-06 21:15:00,
2013-02-06 15:17:00,73.1,59.3,29.81,SE,126,6.0,9.0,62,0.00,,,0.00,VWS V14.01,2013-02-06 21:17:00,
2013-02-06 15:20:00,74.1,59.8,29.78,ESE,123,7.0,11.0,61,0.00,,,0.00,VWS V14.01,2013-02-06 21:20:00,
2013-02-06 15:22:00,73.0,58.8,29.81,SSE,149,11.0,15.0,61,0.00,,,0.00,VWS V14.01,2013-02-06 21:22:00,
2013-02-06 15:25:00,74.2,59.4,29.78,SE,134,10.0,11.0,60,0.00,,,0.00,VWS V14.01,2013-02-06 21:25:00,
2013-02-06 15:27:00,73.0,59.2,29.80,SE,132,9.0,13.0,62,0.00,,,0.00,VWS V14.01,2013-02-06 21:27:00,
2013-02-06 15:30:00,74.2,59.0,29.78,South,171,4.0,11.0,59,0.00,,,0.00,VWS V14.01,2013-02-06 21:30:00,
2013-02-06 15:32:00,72.9,59.1,29.80,ESE,120,8.0,12.0,62,0.00,,,0.00,VWS V14.01,2013-02-06 21:32:00,
2013-02-06 15:35:00,74.6,59.3,29.78,SSE,166,8.0,11.0,59,0.00,,,0.00,VWS V14.01,2013-02-06 21:35:00,
2013-02-06 15:37:00,73.1,59.3,29.80,SE,143,9.0,11.0,62,0.00,,,0.00,VWS V14.01,2013-02-06 21:37:00,
2013-02-06 15:40:00,74.9,59.1,29.79,SE,142,7.0,11.0,58,0.00,,,0.00,VWS V14.01,2013-02-06 21:40:00,
2013-02-06 15:42:00,73.1,59.3,29.80,SE,130,7.0,14.0,62,0.00,,,0.00,VWS V14.01,2013-02-06 21:42:00,
2013-02-06 15:45:00,74.6,58.9,29.79,ESE,115,8.0,13.0,58,0.00,,,0.00,VWS V14.01,2013-02-06 21:45:00,
2013-02-06 15:47:00,73.2,59.0,29.80,SE,132,6.0,11.0,61,0.00,,,0.00,VWS V14.01,2013-02-06 21:47:00,
2013-02-06 15:50:00,74.9,59.1,29.79,SE,137,12.0,12.0,58,0.00,,,0.00,VWS V14.01,2013-02-06 21:50:00,
2013-02-06 15:52:00,73.3,59.5,29.79,ESE,118,8.0,12.0,62,0.00,,,0.00,VWS V14.01,2013-02-06 21:52:00,
2013-02-06 15:55:00,74.2,59.0,29.79,ESE,106,6.0,14.0,59,0.00,,,0.00,VWS V14.01,2013-02-06 21:55:00,
2013-02-06 15:57:00,73.4,59.6,29.78,East,82,9.0,13.0,62,0.00,,,0.00,VWS V14.01,2013-02-06 21:57:00,
2013-02-06 16:00:00,73.7,59.0,29.80,SSE,149,6.0,11.0,60,0.00,,,0.00,VWS V14.01,2013-02-06 22:00:00,
2013-02-06 16:02:00,73.7,59.4,29.79,SE,129,10.0,14.0,61,0.00,,,0.00,VWS V14.01,2013-02-06 22:02:00,
2013-02-06 16:05:00,73.3,58.6,29.80,SE,127,8.0,11.0,60,0.00,,,0.00,VWS V14.01,2013-02-06 22:05:00,
2013-02-06 16:07:00,73.9,59.6,29.79,SE,125,12.0,14.0,61,0.00,,,0.00,VWS V14.01,2013-02-06 22:07:00,
2013-02-06 16:10:00,72.9,58.7,29.80,SE,130,10.0,14.0,61,0.00,,,0.00,VWS V14.01,2013-02-06 22:10:00,
2013-02-06 16:12:00,73.8,59.1,29.79,SE,129,8.0,10.0,60,0.00,,,0.00,VWS V14.01,2013-02-06 22:12:00,
2013-02-06 16:15:00,72.6,58.4,29.79,ESE,113,8.0,14.0,61,0.00,,,0.00,VWS V14.01,2013-02-06 22:15:00,
2013-02-06 16:17:00,73.9,59.6,29.78,SE,126,9.0,10.0,61,0.00,,,0.00,VWS V14.01,2013-02-06 22:17:00,
2013-02-06 16:20:00,72.5,58.3,29.80,SE,143,8.0,14.0,61,0.00,,,0.00,VWS V14.01,2013-02-06 22:20:00,
2013-02-06 16:22:00,74.2,59.4,29.78,ESE,118,6.0,11.0,60,0.00,,,0.00,VWS V14.01,2013-02-06 22:22:00,
2013-02-06 16:25:00,72.4,58.2,29.80,SE,125,9.0,14.0,61,0.00,,,0.00,VWS V14.01,2013-02-06 22:25:00,
2013-02-06 16:27:00,74.3,59.1,29.79,SE,129,10.0,11.0,59,0.00,,,0.00,VWS V14.01,2013-02-06 22:27:00,
2013-02-06 16:30:00,72.4,58.2,29.79,ESE,111,11.0,16.0,61,0.00,,,0.00,VWS V14.01,2013-02-06 22:30:00,
2013-02-06 16:32:00,74.3,59.1,29.78,SSE,167,6.0,11.0,59,0.00,,,0.00,VWS V14.01,2013-02-06 22:32:00,
2013-02-06 16:35:00,72.3,58.6,29.80,SE,129,9.0,14.0,62,0.00,,,0.00,VWS V14.01,2013-02-06 22:35:00,
2013-02-06 16:37:00,74.8,59.0,29.79,ESE,121,7.0,11.0,58,0.00,,,0.00,VWS V14.01,2013-02-06 22:37:00,
2013-02-06 16:40:00,72.3,58.6,29.81,ESE,109,7.0,15.0,62,0.00,,,0.00,VWS V14.01,2013-02-06 22:40:00,
2013-02-06 16:42:00,74.8,59.0,29.79,ESE,122,7.0,13.0,58,0.00,,,0.00,VWS V14.01,2013-02-06 22:42:00,
2013-02-06 16:45:00,72.0,58.3,29.81,SE,140,12.0,16.0,62,0.00,,,0.00,VWS V14.01,2013-02-06 22:45:00,
2013-02-06 16:47:00,74.9,59.6,29.79,ESE,104,4.0,9.0,59,0.00,,,0.00,VWS V14.01,2013-02-06 22:47:00,
2013-02-06 16:50:00,71.8,58.5,29.81,SE,137,6.0,12.0,63,0.00,,,0.00,VWS V14.01,2013-02-06 22:50:00,
2013-02-06 16:52:00,74.5,58.8,29.79,SE,126,10.0,14.0,58,0.00,,,0.00,VWS V14.01,2013-02-06 22:52:00,
2013-02-06 16:55:00,71.6,58.3,29.81,SSE,156,5.0,13.0,63,0.00,,,0.00,VWS V14.01,2013-02-06 22:55:00,
2013-02-06 16:57:00,73.9,58.7,29.80,ESE,122,11.0,11.0,59,0.00,,,0.00,VWS V14.01,2013-02-06 22:57:00,
2013-02-06 17:00:00,71.4,58.2,29.81,SE,126,8.0,11.0,63,0.00,,,0.00,VWS V14.01,2013-02-06 23:00:00,
2013-02-06 17:02:00,73.5,58.8,29.80,SE,130,9.0,11.0,60,0.00,,,0.00,VWS V14.01,2013-02-06 23:02:00,
2013-02-06 17:05:00,71.1,58.3,29.81,ESE,123,6.0,12.0,64,0.00,,,0.00,VWS V14.01,2013-02-06 23:05:00,
2013-02-06 17:07:00,73.1,58.9,29.80,SE,129,12.0,13.0,61,0.00,,,0.00,VWS V14.01,2013-02-06 23:07:00,
2013-02-06 17:10:00,70.8,58.0,29.81,SE,133,8.0,12.0,64,0.00,,,0.00,VWS V14.01,2013-02-06 23:10:00,
2013-02-06 17:12:00,72.8,58.6,29.79,ESE,109,11.0,14.0,61,0.00,,,0.00,VWS V14.01,2013-02-06 23:12:00,
2013-02-06 17:15:00,70.5,57.8,29.81,SSE,147,3.0,11.0,64,0.00,,,0.00,VWS V14.01,2013-02-06 23:15:00,
2013-02-06 17:17:00,72.6,58.8,29.80,ESE,109,8.0,11.0,62,0.00,,,0.00,VWS V14.01,2013-02-06 23:17:00,
2013-02-06 17:20:00,70.6,57.4,29.82,SE,140,12.0,12.0,63,0.00,,,0.00,VWS V14.01,2013-02-06 23:20:00,
2013-02-06 17:22:00,72.5,58.3,29.80,ESE,118,12.0,12.0,61,0.00,,,0.00,VWS V14.01,2013-02-06 23:22:00,
2013-02-06 17:25:00,70.6,57.4,29.82,South,170,6.0,12.0,63,0.00,,,0.00,VWS V14.01,2013-02-06 23:25:00,
2013-02-06 17:27:00,72.4,58.2,29.79,SE,130,12.0,16.0,61,0.00,,,0.00,VWS V14.01,2013-02-06 23:27:00,
2013-02-06 17:30:00,70.5,57.3,29.82,ESE,123,6.0,10.0,63,0.00,,,0.00,VWS V14.01,2013-02-06 23:30:00,
2013-02-06 17:32:00,72.3,58.6,29.80,SE,133,8.0,13.0,62,0.00,,,0.00,VWS V14.01,2013-02-06 23:32:00,
2013-02-06 17:35:00,70.4,57.2,29.83,SE,138,8.0,9.0,63,0.00,,,0.00,VWS V14.01,2013-02-06 23:35:00,
2013-02-06 17:37:00,72.2,58.5,29.80,SE,137,13.0,14.0,62,0.00,,,0.00,VWS V14.01,2013-02-06 23:37:00,
2013-02-06 17:40:00,70.2,57.5,29.82,SE,130,7.0,9.0,64,0.00,,,0.00,VWS V14.01,2013-02-06 23:40:00,
2013-02-06 17:42:00,72.2,58.5,29.81,SE,129,11.0,16.0,62,0.00,,,0.00,VWS V14.01,2013-02-06 23:42:00,
2013-02-06 17:45:00,69.9,57.6,29.82,ESE,103,4.0,9.0,65,0.00,,,0.00,VWS V14.01,2013-02-06 23:45:00,
2013-02-06 17:47:00,72.0,58.7,29.81,SE,139,7.0,12.0,63,0.00,,,0.00,VWS V14.01,2013-02-06 23:47:00,
2013-02-06 17:50:00,69.6,57.8,29.83,SE,140,4.0,9.0,66,0.00,,,0.00,VWS V14.01,2013-02-06 23:50:00,
2013-02-06 17:52:00,71.7,58.5,29.81,SE,132,10.0,12.0,63,0.00,,,0.00,VWS V14.01,2013-02-06 23:52:00,
2013-02-06 17:55:00,69.5,57.7,29.83,SE,142,4.0,8.0,66,0.00,,,0.00,VWS V14.01,2013-02-06 23:55:00,
2013-02-06 17:57:00,71.5,58.3,29.81,ESE,113,9.0,11.0,63,0.00,,,0.00,VWS V14.01,2013-02-06 23:57:00,
2013-02-06 18:00:00,69.4,57.6,29.83,ESE,120,9.0,14.0,66,0.00,,,0.00,VWS V14.01,2013-02-07 00:00:00,
2013-02-06 18:02:00,71.2,58.0,29.81,SE,143,7.0,12.0,63,0.00,,,0.00,VWS V14.01,2013-02-07 00:02:00,
2013-02-06 18:05:00,69.4,57.6,29.83,SE,142,9.0,16.0,66,0.00,,,0.00,VWS V14.01,2013-02-07 00:05:00,
2013-02-06 18:07:00,70.9,58.1,29.81,SE,139,9.0,12.0,64,0.00,,,0.00,VWS V14.01,2013-02-07 00:07:00,
2013-02-06 18:10:00,69.2,57.8,29.84,SE,137,7.0,17.0,67,0.00,,,0.00,VWS V14.01,2013-02-07 00:10:00,
2013-02-06 18:12:00,70.6,57.8,29.81,SE,136,9.0,11.0,64,0.00,,,0.00,VWS V14.01,2013-02-07 00:12:00,
2013-02-06 18:15:00,68.9,57.5,29.84,SE,126,9.0,16.0,67,0.00,,,0.00,VWS V14.01,2013-02-07 00:15:00,
2013-02-06 18:17:00,70.6,57.4,29.82,SE,136,5.0,9.0,63,0.00,,,0.00,VWS V14.01,2013-02-07 00:17:00,
2013-02-06 18:20:00,68.6,57.6,29.84,SSE,147,8.0,15.0,68,0.00,,,0.00,VWS V14.01,2013-02-07 00:20:00,
2013-02-06 18:22:00,70.6,57.4,29.82,South,175,5.0,12.0,63,0.00,,,0.00,VWS V14.01,2013-02-07 00:22:00,
2013-02-06 18:25:00,68.4,57.4,29.84,SE,127,13.0,14.0,68,0.00,,,0.00,VWS V14.01,2013-02-07 00:25:00,
2013-02-06 18:27:00,70.6,57.0,29.82,SSE,149,7.0,10.0,62,0.00,,,0.00,VWS V14.01,2013-02-07 00:27:00,
2013-02-06 18:30:00,68.0,57.5,29.84,SSE,151,9.0,13.0,69,0.00,,,0.00,VWS V14.01,2013-02-07 00:30:00,
2013-02-06 18:32:00,70.5,57.3,29.83,SE,137,6.0,9.0,63,0.00,,,0.00,VWS V14.01,2013-02-07 00:32:00,
2013-02-06 18:35:00,67.7,57.2,29.84,SE,146,10.0,16.0,69,0.00,,,0.00,VWS V14.01,2013-02-07 00:35:00,
2013-02-06 18:37:00,70.3,57.6,29.83,SE,136,6.0,9.0,64,0.00,,,0.00,VWS V14.01,2013-02-07 00:37:00,
2013-02-06 18:40:00,67.3,56.8,29.85,SE,125,8.0,17.0,69,0.00,,,0.00,VWS V14.01,2013-02-07 00:40:00,
2013-02-06 18:42:00,70.1,57.4,29.82,SE,135,6.0,9.0,64,0.00,,,0.00,VWS V14.01,2013-02-07 00:42:00,
2013-02-06 18:45:00,67.2,56.7,29.85,SE,144,8.0,16.0,69,0.00,,,0.00,VWS V14.01,2013-02-07 00:45:00,
2013-02-06 18:47:00,69.8,57.5,29.83,SE,127,7.0,9.0,65,0.00,,,0.00,VWS V14.01,2013-02-07 00:47:00,
2013-02-06 18:50:00,66.9,56.8,29.85,SE,139,10.0,13.0,70,0.00,,,0.00,VWS V14.01,2013-02-07 00:50:00,
2013-02-06 18:52:00,69.6,57.8,29.83,SE,132,6.0,6.0,66,0.00,,,0.00,VWS V14.01,2013-02-07 00:52:00,
2013-02-06 18:55:00,66.8,56.7,29.85,SE,137,8.0,14.0,70,0.00,,,0.00,VWS V14.01,2013-02-07 00:55:00,
2013-02-06 18:57:00,69.4,57.6,29.83,SE,126,7.0,9.0,66,0.00,,,0.00,VWS V14.01,2013-02-07 00:57:00,
2013-02-06 19:00:00,66.5,56.4,29.86,SSE,163,11.0,12.0,70,0.00,,,0.00,VWS V14.01,2013-02-07 01:00:00,
2013-02-06 19:02:00,69.6,57.8,29.83,SSE,156,7.0,14.0,66,0.00,,,0.00,VWS V14.01,2013-02-07 01:02:00,
2013-02-06 19:05:00,66.3,56.2,29.86,SE,129,7.0,13.0,70,0.00,,,0.00,VWS V14.01,2013-02-07 01:05:00,
2013-02-06 19:07:00,69.4,57.6,29.83,SE,129,9.0,17.0,66,0.00,,,0.00,VWS V14.01,2013-02-07 01:07:00,
2013-02-06 19:10:00,66.1,56.4,29.86,SSE,163,8.0,12.0,71,0.00,,,0.00,VWS V14.01,2013-02-07 01:10:00,
2013-02-06 19:12:00,69.0,57.6,29.84,ESE,115,8.0,11.0,67,0.00,,,0.00,VWS V14.01,2013-02-07 01:12:00,
2013-02-06 19:15:00,65.9,56.2,29.86,SE,135,8.0,13.0,71,0.00,,,0.00,VWS V14.01,2013-02-07 01:15:00,
2013-02-06 19:17:00,68.8,57.8,29.84,ESE,122,11.0,15.0,68,0.00,,,0.00,VWS V14.01,2013-02-07 01:17:00,
2013-02-06 19:20:00,65.6,56.0,29.86,SE,135,7.0,10.0,71,0.00,,,0.00,VWS V14.01,2013-02-07 01:20:00,
2013-02-06 19:22:00,68.5,57.5,29.84,South,178,11.0,14.0,68,0.00,,,0.00,VWS V14.01,2013-02-07 01:22:00,
2013-02-06 19:25:00,65.5,56.2,29.86,SE,129,10.0,12.0,72,0.00,,,0.00,VWS V14.01,2013-02-07 01:25:00,
2013-02-06 19:27:00,68.3,57.8,29.84,SE,143,7.0,13.0,69,0.00,,,0.00,VWS V14.01,2013-02-07 01:27:00,
2013-02-06 19:30:00,65.4,56.2,29.86,SSE,147,9.0,14.0,72,0.00,,,0.00,VWS V14.01,2013-02-07 01:30:00,
2013-02-06 19:32:00,67.9,57.4,29.84,SE,133,12.0,14.0,69,0.00,,,0.00,VWS V14.01,2013-02-07 01:32:00,
2013-02-06 19:35:00,65.2,56.0,29.86,SE,135,7.0,12.0,72,0.00,,,0.00,VWS V14.01,2013-02-07 01:35:00,
2013-02-06 19:37:00,67.6,57.1,29.84,SE,139,9.0,17.0,69,0.00,,,0.00,VWS V14.01,2013-02-07 01:37:00,
2013-02-06 19:40:00,64.9,56.0,29.87,SE,132,10.0,14.0,73,0.00,,,0.00,VWS V14.01,2013-02-07 01:40:00,
2013-02-06 19:42:00,67.3,56.8,29.85,SSE,147,14.0,16.0,69,0.00,,,0.00,VWS V14.01,2013-02-07 01:42:00,
2013-02-06 19:45:00,64.8,56.0,29.87,SSE,150,4.0,14.0,73,0.00,,,0.00,VWS V14.01,2013-02-07 01:45:00,
2013-02-06 19:47:00,67.1,56.6,29.85,SSE,160,5.0,13.0,69,0.00,,,0.00,VWS V14.01,2013-02-07 01:47:00,
2013-02-06 19:50:00,64.7,55.9,29.87,SE,135,7.0,11.0,73,0.00,,,0.00,VWS V14.01,2013-02-07 01:50:00,
2013-02-06 19:52:00,66.9,56.8,29.85,ESE,123,8.0,10.0,70,0.00,,,0.00,VWS V14.01,2013-02-07 01:52:00,
2013-02-06 19:55:00,64.4,55.6,29.87,East,97,7.0,8.0,73,0.00,,,0.00,VWS V14.01,2013-02-07 01:55:00,
2013-02-06 19:57:00,66.7,56.6,29.85,SSE,147,9.0,12.0,70,0.00,,,0.00,VWS V14.01,2013-02-07 01:57:00,
2013-02-06 20:00:00,64.1,55.7,29.88,SE,133,8.0,13.0,74,0.00,,,0.00,VWS V14.01,2013-02-07 02:00:00,
2013-02-06 20:02:00,66.4,56.3,29.86,SE,126,9.0,13.0,70,0.00,,,0.00,VWS V14.01,2013-02-07 02:02:00,
2013-02-06 20:05:00,63.8,55.7,29.88,SE,137,7.0,9.0,75,0.00,,,0.00,VWS V14.01,2013-02-07 02:05:00,
2013-02-06 20:07:00,66.2,56.5,29.86,ESE,113,8.0,11.0,71,0.00,,,0.00,VWS V14.01,2013-02-07 02:07:00,
2013-02-06 20:10:00,63.6,55.5,29.88,SE,137,7.0,9.0,75,0.00,,,0.00,VWS V14.01,2013-02-07 02:10:00,
2013-02-06 20:12:00,66.1,56.4,29.85,SSE,155,8.0,13.0,71,0.00,,,0.00,VWS V14.01,2013-02-07 02:12:00,
2013-02-06 20:15:00,63.6,55.5,29.88,ESE,115,5.0,11.0,75,0.00,,,0.00,VWS V14.01,2013-02-07 02:15:00,
2013-02-06 20:17:00,65.8,56.2,29.85,SE,139,6.0,10.0,71,0.00,,,0.00,VWS V14.01,2013-02-07 02:17:00,
2013-02-06 20:20:00,63.3,55.2,29.88,ESE,116,6.0,9.0,75,0.00,,,0.00,VWS V14.01,2013-02-07 02:20:00,
2013-02-06 20:22:00,65.6,56.0,29.86,SE,127,7.0,9.0,71,0.00,,,0.00,VWS V14.01,2013-02-07 02:22:00,
2013-02-06 20:25:00,63.0,55.3,29.88,ESE,123,8.0,8.0,76,0.00,,,0.00,VWS V14.01,2013-02-07 02:25:00,
2013-02-06 20:27:00,65.5,56.2,29.86,SE,144,10.0,12.0,72,0.00,,,0.00,VWS V14.01,2013-02-07 02:27:00,
2013-02-06 20:30:00,62.9,55.2,29.88,SE,140,4.0,9.0,76,0.00,,,0.00,VWS V14.01,2013-02-07 02:30:00,
2013-02-06 20:32:00,65.4,56.2,29.86,SE,126,8.0,12.0,72,0.00,,,0.00,VWS V14.01,2013-02-07 02:32:00,
2013-02-06 20:35:00,62.8,55.5,29.88,SE,129,4.0,7.0,77,0.00,,,0.00,VWS V14.01,2013-02-07 02:35:00,
2013-02-06 20:37:00,65.0,55.8,29.87,SE,135,6.0,8.0,72,0.00,,,0.00,VWS V14.01,2013-02-07 02:37:00,
2013-02-06 20:40:00,62.3,55.0,29.88,SE,136,7.0,7.0,77,0.00,,,0.00,VWS V14.01,2013-02-07 02:40:00,
2013-02-06 20:42:00,64.8,56.0,29.87,SE,142,7.0,12.0,73,0.00,,,0.00,VWS V14.01,2013-02-07 02:42:00,
2013-02-06 20:45:00,62.0,55.1,29.88,SE,128,9.0,9.0,78,0.00,,,0.00,VWS V14.01,2013-02-07 02:45:00,
2013-02-06 20:47:00,64.7,55.9,29.87,SE,132,7.0,11.0,73,0.00,,,0.00,VWS V14.01,2013-02-07 02:47:00,
2013-02-06 20:50:00,62.0,55.1,29.88,SE,144,4.0,10.0,78,0.00,,,0.00,VWS V14.01,2013-02-07 02:50:00,
2013-02-06 20:52:00,64.6,55.8,29.87,South,181,6.0,8.0,73,0.00,,,0.00,VWS V14.01,2013-02-07 02:52:00,
2013-02-06 20:55:00,61.6,55.0,29.89,ESE,123,4.0,6.0,79,0.00,,,0.00,VWS V14.01,2013-02-07 02:55:00,
2013-02-06 20:57:00,64.2,55.8,29.88,ESE,116,6.0,10.0,74,0.00,,,0.00,VWS V14.01,2013-02-07 02:57:00,
2013-02-06 21:00:00,61.5,54.9,29.89,SE,137,7.0,9.0,79,0.00,,,0.00,VWS V14.01,2013-02-07 03:00:00,
2013-02-06 21:02:00,64.0,55.6,29.88,SE,135,6.0,8.0,74,0.00,,,0.00,VWS V14.01,2013-02-07 03:02:00,
2013-02-06 21:05:00,61.4,55.2,29.89,SSE,167,4.0,7.0,80,0.00,,,0.00,VWS V14.01,2013-02-07 03:05:00,
2013-02-06 21:07:00,63.7,55.6,29.88,SE,126,5.0,9.0,75,0.00,,,0.00,VWS V14.01,2013-02-07 03:07:00,
2013-02-06 21:10:00,61.4,55.2,29.89,SE,133,6.0,8.0,80,0.00,,,0.00,VWS V14.01,2013-02-07 03:10:00,
2013-02-06 21:12:00,63.6,55.5,29.88,ESE,116,8.0,9.0,75,0.00,,,0.00,VWS V14.01,2013-02-07 03:12:00,
2013-02-06 21:15:00,61.5,55.3,29.89,SE,135,6.0,9.0,80,0.00,,,0.00,VWS V14.01,2013-02-07 03:15:00,
2013-02-06 21:17:00,63.6,55.5,29.88,SE,133,8.0,9.0,75,0.00,,,0.00,VWS V14.01,2013-02-07 03:17:00,
2013-02-06 21:20:00,61.5,55.6,29.90,SE,133,5.0,8.0,81,0.00,,,0.00,VWS V14.01,2013-02-07 03:20:00,
2013-02-06 21:22:00,63.1,55.4,29.88,SE,133,7.0,8.0,76,0.00,,,0.00,VWS V14.01,2013-02-07 03:22:00,
2013-02-06 21:25:00,61.5,55.6,29.90,SE,143,4.0,10.0,81,0.00,,,0.00,VWS V14.01,2013-02-07 03:25:00,
2013-02-06 21:27:00,63.0,55.3,29.88,SE,142,7.0,9.0,76,0.00,,,0.00,VWS V14.01,2013-02-07 03:27:00,
2013-02-06 21:30:00,61.6,55.7,29.90,South,172,4.0,9.0,81,0.00,,,0.00,VWS V14.01,2013-02-07 03:30:00,
2013-02-06 21:32:00,62.9,55.2,29.88,SE,125,6.0,6.0,76,0.00,,,0.00,VWS V14.01,2013-02-07 03:32:00,
2013-02-06 21:35:00,61.6,55.7,29.90,SSE,149,5.0,8.0,81,0.00,,,0.00,VWS V14.01,2013-02-07 03:35:00,
2013-02-06 21:37:00,62.6,55.3,29.88,SE,126,5.0,6.0,77,0.00,,,0.00,VWS V14.01,2013-02-07 03:37:00,
2013-02-06 21:40:00,61.6,55.7,29.90,ESE,116,5.0,8.0,81,0.00,,,0.00,VWS V14.01,2013-02-07 03:40:00,
2013-02-06 21:42:00,62.2,55.3,29.88,SE,136,5.0,8.0,78,0.00,,,0.00,VWS V14.01,2013-02-07 03:42:00,
2013-02-06 21:45:00,61.6,56.1,29.90,SE,133,4.0,11.0,82,0.00,,,0.00,VWS V14.01,2013-02-07 03:45:00,
2013-02-06 21:47:00,62.0,55.1,29.88,SE,126,6.0,10.0,78,0.00,,,0.00,VWS V14.01,2013-02-07 03:47:00,
2013-02-06 21:50:00,61.7,56.2,29.90,SE,129,6.0,8.0,82,0.00,,,0.00,VWS V14.01,2013-02-07 03:50:00,
2013-02-06 21:52:00,61.8,54.9,29.88,SE,143,6.0,6.0,78,0.00,,,0.00,VWS V14.01,2013-02-07 03:52:00,
2013-02-06 21:55:00,61.7,56.2,29.90,SE,130,2.0,8.0,82,0.00,,,0.00,VWS V14.01,2013-02-07 03:55:00,
2013-02-06 21:57:00,61.6,55.0,29.89,SE,139,5.0,6.0,79,0.00,,,0.00,VWS V14.01,2013-02-07 03:57:00,
2013-02-06 22:00:00,61.7,56.2,29.89,ESE,111,4.0,8.0,82,0.00,,,0.00,VWS V14.01,2013-02-07 04:00:00,
2013-02-06 22:02:00,61.4,54.8,29.89,SE,126,5.0,7.0,79,0.00,,,0.00,VWS V14.01,2013-02-07 04:02:00,
2013-02-06 22:05:00,61.7,56.2,29.89,SE,137,7.0,9.0,82,0.00,,,0.00,VWS V14.01,2013-02-07 04:05:00,
2013-02-06 22:07:00,61.4,55.2,29.89,SSE,162,7.0,7.0,80,0.00,,,0.00,VWS V14.01,2013-02-07 04:07:00,
2013-02-06 22:10:00,61.7,56.2,29.89,ESE,119,7.0,9.0,82,0.00,,,0.00,VWS V14.01,2013-02-07 04:10:00,
2013-02-06 22:12:00,61.4,55.2,29.89,SSE,149,4.0,7.0,80,0.00,,,0.00,VWS V14.01,2013-02-07 04:12:00,
2013-02-06 22:15:00,61.6,56.1,29.89,ESE,118,5.0,8.0,82,0.00,,,0.00,VWS V14.01,2013-02-07 04:15:00,
2013-02-06 22:17:00,61.5,55.3,29.89,SE,136,8.0,8.0,80,0.00,,,0.00,VWS V14.01,2013-02-07 04:17:00,
2013-02-06 22:20:00,61.6,56.4,29.89,SE,125,6.0,7.0,83,0.00,,,0.00,VWS V14.01,2013-02-07 04:20:00,
2013-02-06 22:22:00,61.5,55.6,29.90,ESE,116,7.0,10.0,81,0.00,,,0.00,VWS V14.01,2013-02-07 04:22:00,
2013-02-06 22:25:00,61.5,56.3,29.89,ESE,116,7.0,8.0,83,0.00,,,0.00,VWS V14.01,2013-02-07 04:25:00,
2013-02-06 22:27:00,61.6,55.7,29.90,SE,135,8.0,9.0,81,0.00,,,0.00,VWS V14.01,2013-02-07 04:27:00,
2013-02-06 22:30:00,61.5,56.3,29.88,ESE,123,8.0,10.0,83,0.00,,,0.00,VWS V14.01,2013-02-07 04:30:00,
2013-02-06 22:32:00,61.6,55.7,29.90,SE,136,4.0,8.0,81,0.00,,,0.00,VWS V14.01,2013-02-07 04:32:00,
2013-02-06 22:35:00,61.5,56.3,29.88,ESE,115,8.0,11.0,83,0.00,,,0.00,VWS V14.01,2013-02-07 04:35:00,
2013-02-06 22:37:00,61.6,55.7,29.90,SE,142,5.0,8.0,81,0.00,,,0.00,VWS V14.01,2013-02-07 04:37:00,
2013-02-06 22:40:00,61.6,56.4,29.88,SE,126,5.0,9.0,83,0.00,,,0.00,VWS V14.01,2013-02-07 04:40:00,
2013-02-06 22:42:00,61.6,56.1,29.90,SE,139,5.0,11.0,82,0.00,,,0.00,VWS V14.01,2013-02-07 04:42:00,
2013-02-06 22:45:00,61.6,56.4,29.88,ESE,118,8.0,9.0,83,0.00,,,0.00,VWS V14.01,2013-02-07 04:45:00,
2013-02-06 22:47:00,61.7,56.2,29.90,ESE,118,5.0,7.0,82,0.00,,,0.00,VWS V14.01,2013-02-07 04:47:00,
2013-02-06 22:50:00,61.7,56.8,29.89,SE,128,4.0,8.0,84,0.00,,,0.00,VWS V14.01,2013-02-07 04:50:00,
2013-02-06 22:52:00,61.7,56.2,29.90,South,173,4.0,8.0,82,0.00,,,0.00,VWS V14.01,2013-02-07 04:52:00,
2013-02-06 22:55:00,61.7,56.8,29.88,SE,137,7.0,8.0,84,0.00,,,0.00,VWS V14.01,2013-02-07 04:55:00,
2013-02-06 22:57:00,61.7,56.2,29.90,SSE,157,4.0,5.0,82,0.00,,,0.00,VWS V14.01,2013-02-07 04:57:00,
2013-02-06 23:00:00,61.7,56.2,29.89,ESE,113,4.0,8.0,82,0.00,,,0.00,VWS V14.01,2013-02-07 05:00:00,
2013-02-06 23:05:00,61.7,56.2,29.89,SE,126,6.0,7.0,82,0.00,,,0.00,VWS V14.01,2013-02-07 05:05:00,
2013-02-06 23:10:00,61.7,56.2,29.89,ESE,120,5.0,7.0,82,0.00,,,0.00,VWS V14.01,2013-02-07 05:10:00,
2013-02-06 23:15:00,61.7,56.2,29.89,ESE,120,6.0,6.0,82,0.00,,,0.00,VWS V14.01,2013-02-07 05:15:00,
2013-02-06 23:20:00,61.5,56.3,29.89,ESE,119,6.0,6.0,83,0.00,,,0.00,VWS V14.01,2013-02-07 05:20:00,
2013-02-06 23:25:00,61.5,56.3,29.89,ESE,122,7.0,8.0,83,0.00,,,0.00,VWS V14.01,2013-02-07 05:25:00,
2013-02-06 23:30:00,61.5,56.3,29.88,ESE,123,9.0,9.0,83,0.00,,,0.00,VWS V14.01,2013-02-07 05:30:00,
2013-02-06 23:35:00,61.5,56.3,29.88,ESE,123,8.0,8.0,83,0.00,,,0.00,VWS V14.01,2013-02-07 05:35:00,
2013-02-06 23:40:00,61.6,56.4,29.88,SE,126,6.0,6.0,83,0.00,,,0.00,VWS V14.01,2013-02-07 05:40:00,
2013-02-06 23:45:00,61.6,56.4,29.88,ESE,121,8.0,8.0,83,0.00,,,0.00,VWS V14.01,2013-02-07 05:45:00,
2013-02-06 23:50:00,61.7,56.8,29.89,SE,128,4.0,8.0,84,0.00,,,0.00,VWS V14.01,2013-02-07 05:50:00,
2013-02-06 23:55:00,61.7,56.8,29.88,SE,142,7.0,7.0,84,0.00,,,0.00,VWS V14.01,2013-02-07 05:55:00,